createdAt,value
2023-04-12T00:00:45.768Z,0
2023-04-12T00:01:45.775Z,0
2023-04-12T00:02:45.893Z,0
2023-04-12T00:03:45.829Z,0
2023-04-12T00:04:46.083Z,0
2023-04-12T00:05:45.766Z,0
2023-04-12T00:06:45.766Z,0
2023-04-12T00:07:45.769Z,0
2023-04-12T00:08:45.765Z,0
2023-04-12T00:09:45.768Z,0
2023-04-12T00:10:45.773Z,0
2023-04-12T00:11:45.781Z,0
2023-04-12T00:12:45.768Z,0
2023-04-12T00:13:45.766Z,0
2023-04-12T00:14:45.775Z,0
2023-04-12T00:15:45.808Z,0
2023-04-12T00:16:45.769Z,0
2023-04-12T00:17:45.782Z,0
2023-04-12T00:18:45.796Z,0
2023-04-12T00:19:45.777Z,0
2023-04-12T00:20:45.806Z,0
2023-04-12T00:21:45.786Z,0
2023-04-12T00:22:45.788Z,0
2023-04-12T00:23:45.773Z,0
2023-04-12T00:24:45.774Z,0
2023-04-12T00:25:45.808Z,0
2023-04-12T00:26:45.774Z,0
2023-04-12T00:27:45.782Z,0
2023-04-12T00:28:45.776Z,0
2023-04-12T00:29:45.775Z,0
2023-04-12T00:30:45.781Z,0
2023-04-12T00:31:45.800Z,0
2023-04-12T00:32:45.802Z,0
2023-04-12T00:33:45.774Z,0
2023-04-12T00:34:45.776Z,0
2023-04-12T00:35:45.779Z,0
2023-04-12T00:36:45.920Z,0
2023-04-12T00:37:45.774Z,0
2023-04-12T00:38:45.785Z,0
2023-04-12T00:39:45.797Z,0
2023-04-12T00:40:45.779Z,0
2023-04-12T00:41:45.775Z,0
2023-04-12T00:42:45.779Z,0
2023-04-12T00:43:45.774Z,0
2023-04-12T00:44:45.776Z,0
2023-04-12T00:45:45.777Z,0
2023-04-12T00:46:45.820Z,0
2023-04-12T00:47:45.794Z,0
2023-04-12T00:48:45.776Z,0
2023-04-12T00:49:45.779Z,0
2023-04-12T00:50:45.776Z,0
2023-04-12T00:51:45.792Z,0
2023-04-12T00:52:45.811Z,0
2023-04-12T00:53:45.780Z,0
2023-04-12T00:54:45.777Z,0
2023-04-12T00:55:45.779Z,0
2023-04-12T00:56:45.776Z,0
2023-04-12T00:57:45.786Z,0
2023-04-12T00:58:45.785Z,0
2023-04-12T00:59:45.781Z,0
2023-04-12T01:00:45.795Z,0
2023-04-12T01:01:45.838Z,0
2023-04-12T01:02:45.992Z,0
2023-04-12T01:03:45.869Z,0
2023-04-12T01:04:45.791Z,0
2023-04-12T01:05:45.781Z,0
2023-04-12T01:06:45.779Z,0
2023-04-12T01:07:45.784Z,0
2023-04-12T01:08:45.881Z,0
2023-04-12T01:09:45.781Z,0
2023-04-12T01:10:45.784Z,0
2023-04-12T01:11:45.778Z,0
2023-04-12T01:12:45.782Z,0
2023-04-12T01:13:45.780Z,0
2023-04-12T01:14:45.782Z,0
2023-04-12T01:15:45.787Z,0
2023-04-12T01:16:45.805Z,0
2023-04-12T01:17:45.808Z,0
2023-04-12T01:18:45.789Z,0
2023-04-12T01:19:45.780Z,0
2023-04-12T01:20:45.780Z,0
2023-04-12T01:21:45.782Z,0
2023-04-12T01:22:45.784Z,0
2023-04-12T01:23:45.780Z,0
2023-04-12T01:24:45.816Z,0
2023-04-12T01:25:45.797Z,0
2023-04-12T01:26:45.787Z,0
2023-04-12T01:27:45.788Z,0
2023-04-12T01:28:45.784Z,0
2023-04-12T01:29:45.785Z,0
2023-04-12T01:30:45.787Z,0
2023-04-12T01:31:45.820Z,0
2023-04-12T01:32:45.829Z,0
2023-04-12T01:33:45.783Z,0
2023-04-12T01:34:45.798Z,0
2023-04-12T01:35:45.790Z,0
2023-04-12T01:36:45.784Z,0
2023-04-12T01:37:45.784Z,0
2023-04-12T01:38:45.784Z,0
2023-04-12T01:39:45.788Z,0
2023-04-12T01:40:45.808Z,0
2023-04-12T01:41:45.786Z,0
2023-04-12T01:42:45.794Z,0
2023-04-12T01:43:45.808Z,0
2023-04-12T01:44:45.796Z,0
2023-04-12T01:45:45.824Z,0
2023-04-12T01:46:45.796Z,0
2023-04-12T01:47:45.850Z,0
2023-04-12T01:48:45.796Z,0
2023-04-12T01:49:45.794Z,0
2023-04-12T01:50:45.795Z,0
2023-04-12T01:51:45.793Z,0
2023-04-12T01:52:45.795Z,0
2023-04-12T01:53:45.794Z,0
2023-04-12T01:54:45.800Z,0
2023-04-12T01:55:45.814Z,0
2023-04-12T01:56:45.824Z,0
2023-04-12T01:57:45.792Z,0
2023-04-12T01:58:45.800Z,0
2023-04-12T01:59:45.793Z,0
2023-04-12T02:00:45.834Z,0
2023-04-12T02:01:45.828Z,0
2023-04-12T02:02:45.846Z,0
2023-04-12T02:03:45.826Z,0
2023-04-12T02:04:45.797Z,0
2023-04-12T02:05:45.801Z,0
2023-04-12T02:06:45.813Z,0
2023-04-12T02:07:45.804Z,0
2023-04-12T02:08:45.796Z,0
2023-04-12T02:09:45.802Z,0
2023-04-12T02:10:45.798Z,0
2023-04-12T02:11:45.800Z,0
2023-04-12T02:12:45.824Z,0
2023-04-12T02:13:45.820Z,0
2023-04-12T02:14:45.799Z,0
2023-04-12T02:15:45.800Z,0
2023-04-12T02:16:45.831Z,0
2023-04-12T02:17:45.809Z,0
2023-04-12T02:18:45.805Z,0
2023-04-12T02:19:45.809Z,0
2023-04-12T02:20:45.809Z,0
2023-04-12T02:21:45.809Z,0
2023-04-12T02:22:45.805Z,0
2023-04-12T02:23:45.803Z,0
2023-04-12T02:24:45.805Z,0
2023-04-12T02:25:45.800Z,0
2023-04-12T02:26:45.807Z,0
2023-04-12T02:27:45.801Z,0
2023-04-12T02:28:45.833Z,0
2023-04-12T02:29:45.805Z,0
2023-04-12T02:30:45.851Z,0
2023-04-12T02:31:45.802Z,0
2023-04-12T02:32:45.839Z,0
2023-04-12T02:33:45.820Z,0
2023-04-12T02:34:45.804Z,0
2023-04-12T02:35:45.823Z,0
2023-04-12T02:36:45.806Z,0
2023-04-12T02:37:45.813Z,0
2023-04-12T02:38:45.819Z,0
2023-04-12T02:39:45.809Z,0
2023-04-12T02:40:45.813Z,0
2023-04-12T02:41:45.809Z,0
2023-04-12T02:42:45.815Z,0
2023-04-12T02:43:45.812Z,0
2023-04-12T02:44:45.834Z,0
2023-04-12T02:45:45.825Z,0
2023-04-12T02:46:45.809Z,0
2023-04-12T02:47:45.877Z,0
2023-04-12T02:48:45.807Z,0
2023-04-12T02:49:45.816Z,0
2023-04-12T02:50:45.816Z,0
2023-04-12T02:51:45.822Z,0
2023-04-12T02:52:45.810Z,0
2023-04-12T02:53:45.808Z,0
2023-04-12T02:54:45.812Z,0
2023-04-12T02:55:45.815Z,0
2023-04-12T02:56:45.818Z,0
2023-04-12T02:57:45.817Z,0
2023-04-12T02:58:45.817Z,0
2023-04-12T02:59:45.821Z,0
2023-04-12T03:00:45.855Z,0
2023-04-12T03:01:45.918Z,0
2023-04-12T03:02:45.906Z,0
2023-04-12T03:03:45.899Z,0
2023-04-12T03:04:45.829Z,0
2023-04-12T03:05:45.824Z,0
2023-04-12T03:06:45.818Z,0
2023-04-12T03:07:45.830Z,0
2023-04-12T03:08:45.821Z,0
2023-04-12T03:09:45.822Z,0
2023-04-12T03:10:45.818Z,0
2023-04-12T03:11:45.821Z,0
2023-04-12T03:12:45.816Z,0
2023-04-12T03:13:45.821Z,0
2023-04-12T03:14:45.822Z,0
2023-04-12T03:15:45.839Z,0
2023-04-12T03:16:45.847Z,0
2023-04-12T03:17:45.872Z,0
2023-04-12T03:18:45.818Z,0
2023-04-12T03:19:45.822Z,0
2023-04-12T03:20:47.593Z,0
2023-04-12T03:21:45.823Z,0
2023-04-12T03:22:45.832Z,0
2023-04-12T03:23:45.826Z,0
2023-04-12T03:24:45.820Z,0
2023-04-12T03:25:45.825Z,0
2023-04-12T03:26:45.824Z,0
2023-04-12T03:27:45.822Z,0
2023-04-12T03:28:45.825Z,0
2023-04-12T03:29:45.827Z,0
2023-04-12T03:30:45.826Z,0
2023-04-12T03:31:45.821Z,0
2023-04-12T03:32:45.937Z,0
2023-04-12T03:33:45.825Z,0
2023-04-12T03:34:45.836Z,0
2023-04-12T03:35:45.843Z,0
2023-04-12T03:36:45.821Z,0
2023-04-12T03:37:45.821Z,0
2023-04-12T03:38:45.828Z,0
2023-04-12T03:39:45.823Z,0
2023-04-12T03:40:45.826Z,0
2023-04-12T03:41:45.827Z,0
2023-04-12T03:42:45.823Z,0
2023-04-12T03:43:45.822Z,0
2023-04-12T03:44:45.823Z,0
2023-04-12T03:45:45.824Z,0
2023-04-12T03:46:45.884Z,0
2023-04-12T03:47:45.862Z,0
2023-04-12T03:48:45.849Z,0
2023-04-12T03:49:51.698Z,0
2023-04-12T03:50:45.823Z,0
2023-04-12T03:51:45.840Z,0
2023-04-12T03:52:45.831Z,0
2023-04-12T03:53:45.828Z,0
2023-04-12T03:54:45.827Z,0
2023-04-12T03:55:45.874Z,0
2023-04-12T03:56:46.327Z,0
2023-04-12T03:57:45.829Z,0
2023-04-12T03:58:45.827Z,0
2023-04-12T03:59:45.826Z,0
2023-04-12T04:00:45.829Z,0
2023-04-12T04:01:45.848Z,0
2023-04-12T04:02:45.910Z,0
2023-04-12T04:03:46.505Z,0
2023-04-12T04:04:45.879Z,0
2023-04-12T04:05:45.841Z,0
2023-04-12T04:06:45.835Z,0
2023-04-12T04:07:45.840Z,0
2023-04-12T04:08:45.832Z,0
2023-04-12T04:09:45.834Z,0
2023-04-12T04:10:45.838Z,2
2023-04-12T04:11:45.862Z,2
2023-04-12T04:12:45.832Z,2
2023-04-12T04:13:45.836Z,2
2023-04-12T04:14:45.838Z,2
2023-04-12T04:15:45.837Z,4
2023-04-12T04:16:45.866Z,4
2023-04-12T04:17:45.855Z,4
2023-04-12T04:18:45.835Z,4
2023-04-12T04:19:45.841Z,4
2023-04-12T04:20:46.040Z,8
2023-04-12T04:21:45.841Z,8
2023-04-12T04:22:45.840Z,8
2023-04-12T04:23:45.846Z,8
2023-04-12T04:24:45.839Z,8
2023-04-12T04:25:45.838Z,13
2023-04-12T04:26:45.848Z,13
2023-04-12T04:27:45.841Z,13
2023-04-12T04:28:45.844Z,13
2023-04-12T04:29:45.875Z,13
2023-04-12T04:30:45.845Z,20
2023-04-12T04:31:45.854Z,20
2023-04-12T04:32:45.868Z,20
2023-04-12T04:33:45.843Z,20
2023-04-12T04:34:45.843Z,20
2023-04-12T04:35:45.893Z,30
2023-04-12T04:36:45.868Z,30
2023-04-12T04:37:45.845Z,30
2023-04-12T04:38:45.846Z,30
2023-04-12T04:39:45.845Z,30
2023-04-12T04:40:45.846Z,45
2023-04-12T04:41:45.851Z,45
2023-04-12T04:42:45.846Z,45
2023-04-12T04:43:45.847Z,45
2023-04-12T04:44:45.854Z,45
2023-04-12T04:45:45.860Z,61
2023-04-12T04:46:45.852Z,61
2023-04-12T04:47:45.858Z,61
2023-04-12T04:48:45.847Z,61
2023-04-12T04:49:45.845Z,61
2023-04-12T04:50:45.847Z,83
2023-04-12T04:51:45.846Z,83
2023-04-12T04:52:45.875Z,83
2023-04-12T04:53:45.850Z,83
2023-04-12T04:54:45.848Z,83
2023-04-12T04:55:45.851Z,112
2023-04-12T04:56:45.850Z,112
2023-04-12T04:57:45.847Z,112
2023-04-12T04:58:45.847Z,112
2023-04-12T04:59:45.862Z,112
2023-04-12T05:00:45.893Z,141
2023-04-12T05:01:45.872Z,141
2023-04-12T05:02:46.173Z,141
2023-04-12T05:03:45.919Z,141
2023-04-12T05:04:45.848Z,141
2023-04-12T05:05:45.852Z,178
2023-04-12T05:06:45.852Z,178
2023-04-12T05:07:45.868Z,178
2023-04-12T05:08:45.884Z,178
2023-04-12T05:09:45.855Z,178
2023-04-12T05:10:45.849Z,217
2023-04-12T05:11:45.852Z,217
2023-04-12T05:12:45.851Z,217
2023-04-12T05:13:45.854Z,217
2023-04-12T05:14:49.762Z,217
2023-04-12T05:15:45.849Z,266
2023-04-12T05:16:45.900Z,266
2023-04-12T05:17:45.885Z,266
2023-04-12T05:18:45.850Z,266
2023-04-12T05:19:45.853Z,266
2023-04-12T05:20:45.903Z,310
2023-04-12T05:21:45.851Z,310
2023-04-12T05:22:45.849Z,310
2023-04-12T05:23:45.853Z,310
2023-04-12T05:24:45.991Z,310
2023-04-12T05:25:45.853Z,359
2023-04-12T05:26:45.856Z,359
2023-04-12T05:27:45.854Z,359
2023-04-12T05:28:45.861Z,359
2023-04-12T05:29:45.855Z,359
2023-04-12T05:30:45.884Z,399
2023-04-12T05:31:45.854Z,399
2023-04-12T05:32:45.869Z,399
2023-04-12T05:33:45.859Z,399
2023-04-12T05:34:45.857Z,399
2023-04-12T05:35:45.871Z,392
2023-04-12T05:36:45.854Z,392
2023-04-12T05:37:45.857Z,392
2023-04-12T05:38:45.859Z,392
2023-04-12T05:39:45.863Z,392
2023-04-12T05:40:45.883Z,389
2023-04-12T05:41:45.858Z,389
2023-04-12T05:42:45.858Z,389
2023-04-12T05:43:45.858Z,389
2023-04-12T05:44:47.481Z,389
2023-04-12T05:45:45.967Z,369
2023-04-12T05:46:45.869Z,369
2023-04-12T05:47:45.889Z,369
2023-04-12T05:48:45.859Z,369
2023-04-12T05:49:45.857Z,369
2023-04-12T05:50:45.857Z,410
2023-04-12T05:51:45.860Z,410
2023-04-12T05:52:45.856Z,410
2023-04-12T05:53:45.861Z,410
2023-04-12T05:54:45.867Z,410
2023-04-12T05:55:45.863Z,461
2023-04-12T05:56:45.891Z,461
2023-04-12T05:57:45.863Z,461
2023-04-12T05:58:45.867Z,461
2023-04-12T05:59:45.864Z,461
2023-04-12T06:00:45.869Z,634
2023-04-12T06:01:45.889Z,634
2023-04-12T06:02:46.070Z,634
2023-04-12T06:03:45.992Z,634
2023-04-12T06:04:49.917Z,634
2023-04-12T06:05:45.914Z,790
2023-04-12T06:06:45.871Z,790
2023-04-12T06:07:45.873Z,790
2023-04-12T06:08:45.874Z,790
2023-04-12T06:09:45.877Z,790
2023-04-12T06:10:45.875Z,760
2023-04-12T06:11:45.872Z,760
2023-04-12T06:12:45.918Z,760
2023-04-12T06:13:45.880Z,760
2023-04-12T06:14:45.883Z,760
2023-04-12T06:15:45.918Z,928
2023-04-12T06:16:45.879Z,928
2023-04-12T06:17:45.939Z,928
2023-04-12T06:18:45.880Z,928
2023-04-12T06:19:45.882Z,928
2023-04-12T06:20:45.883Z,1103
2023-04-12T06:21:45.880Z,1103
2023-04-12T06:22:45.895Z,1103
2023-04-12T06:23:45.888Z,1103
2023-04-12T06:24:45.884Z,1103
2023-04-12T06:25:45.885Z,1055
2023-04-12T06:26:45.895Z,1055
2023-04-12T06:27:45.887Z,1055
2023-04-12T06:28:45.907Z,1055
2023-04-12T06:29:45.882Z,1055
2023-04-12T06:30:45.887Z,1108
2023-04-12T06:31:46.002Z,1108
2023-04-12T06:32:45.919Z,1108
2023-04-12T06:33:45.878Z,1108
2023-04-12T06:34:45.882Z,1108
2023-04-12T06:35:45.903Z,1266
2023-04-12T06:36:45.882Z,1266
2023-04-12T06:37:45.931Z,1266
2023-04-12T06:38:45.883Z,1266
2023-04-12T06:39:45.877Z,1266
2023-04-12T06:40:45.885Z,1480
2023-04-12T06:41:45.879Z,1480
2023-04-12T06:42:45.901Z,1480
2023-04-12T06:43:45.884Z,1480
2023-04-12T06:44:45.926Z,1480
2023-04-12T06:45:45.884Z,1541
2023-04-12T06:46:45.904Z,1541
2023-04-12T06:47:45.893Z,1541
2023-04-12T06:48:45.888Z,1541
2023-04-12T06:49:45.879Z,1541
2023-04-12T06:50:45.880Z,1573
2023-04-12T06:51:45.886Z,1573
2023-04-12T06:52:45.880Z,1573
2023-04-12T06:53:46.021Z,1573
2023-04-12T06:54:45.883Z,1573
2023-04-12T06:55:45.878Z,1743
2023-04-12T06:56:45.887Z,1743
2023-04-12T06:57:45.877Z,1743
2023-04-12T06:58:45.886Z,1743
2023-04-12T06:59:45.880Z,1743
2023-04-12T07:00:45.921Z,1527
2023-04-12T07:01:45.920Z,1527
2023-04-12T07:02:45.974Z,1527
2023-04-12T07:03:45.917Z,1527
2023-04-12T07:04:45.883Z,1527
2023-04-12T07:05:45.888Z,1417
2023-04-12T07:06:45.936Z,1417
2023-04-12T07:07:45.886Z,1417
2023-04-12T07:08:45.884Z,1417
2023-04-12T07:09:45.886Z,1417
2023-04-12T07:10:45.892Z,1334
2023-04-12T07:11:45.903Z,1334
2023-04-12T07:12:45.882Z,1334
2023-04-12T07:13:45.889Z,1334
2023-04-12T07:14:45.895Z,1334
2023-04-12T07:15:45.894Z,1431
2023-04-12T07:16:45.989Z,1431
2023-04-12T07:17:45.898Z,1431
2023-04-12T07:18:45.893Z,1431
2023-04-12T07:19:45.890Z,1431
2023-04-12T07:20:45.887Z,1376
2023-04-12T07:21:45.888Z,1376
2023-04-12T07:22:45.888Z,1376
2023-04-12T07:23:45.892Z,1376
2023-04-12T07:24:45.897Z,1376
2023-04-12T07:25:45.893Z,1509
2023-04-12T07:26:46.128Z,1509
2023-04-12T07:27:45.887Z,1509
2023-04-12T07:28:45.887Z,1509
2023-04-12T07:29:45.901Z,1509
2023-04-12T07:30:45.890Z,1971
2023-04-12T07:31:45.891Z,1971
2023-04-12T07:32:46.005Z,1971
2023-04-12T07:33:45.921Z,1971
2023-04-12T07:34:45.896Z,1971
2023-04-12T07:35:45.909Z,2136
2023-04-12T07:36:45.896Z,2136
2023-04-12T07:37:45.894Z,2136
2023-04-12T07:38:45.895Z,2136
2023-04-12T07:39:45.927Z,2136
2023-04-12T07:40:49.212Z,2619
2023-04-12T07:41:45.891Z,2619
2023-04-12T07:42:45.899Z,2619
2023-04-12T07:43:45.895Z,2619
2023-04-12T07:44:45.907Z,2619
2023-04-12T07:45:45.929Z,2803
2023-04-12T07:46:45.900Z,2803
2023-04-12T07:47:45.924Z,2803
2023-04-12T07:48:45.927Z,2803
2023-04-12T07:49:45.898Z,2803
2023-04-12T07:50:45.909Z,2711
2023-04-12T07:51:45.900Z,2711
2023-04-12T07:52:45.903Z,2711
2023-04-12T07:53:45.899Z,2711
2023-04-12T07:54:45.906Z,2711
2023-04-12T07:55:45.900Z,4455
2023-04-12T07:56:45.897Z,3873
2023-04-12T07:57:45.898Z,3853
2023-04-12T07:58:45.898Z,3127
2023-04-12T07:59:45.906Z,2808
2023-04-12T08:00:45.906Z,2808
2023-04-12T08:01:45.916Z,2808
2023-04-12T08:02:45.948Z,2808
2023-04-12T08:03:45.969Z,2808
2023-04-12T08:04:45.941Z,1488
2023-04-12T08:05:45.925Z,1488
2023-04-12T08:06:45.906Z,1488
2023-04-12T08:07:45.914Z,1488
2023-04-12T08:08:45.904Z,1488
2023-04-12T08:09:45.906Z,1071
2023-04-12T08:10:45.920Z,1071
2023-04-12T08:11:45.921Z,1071
2023-04-12T08:12:45.917Z,1071
2023-04-12T08:13:45.915Z,1071
2023-04-12T08:14:45.928Z,1379
2023-04-12T08:15:45.931Z,1379
2023-04-12T08:16:45.920Z,1379
2023-04-12T08:17:45.924Z,1379
2023-04-12T08:18:45.913Z,1379
2023-04-12T08:19:45.917Z,1548
2023-04-12T08:20:45.935Z,1548
2023-04-12T08:21:45.916Z,1548
2023-04-12T08:22:45.912Z,1548
2023-04-12T08:23:45.915Z,1548
2023-04-12T08:24:45.915Z,1342
2023-04-12T08:25:45.928Z,1342
2023-04-12T08:26:45.926Z,1342
2023-04-12T08:27:45.942Z,1342
2023-04-12T08:28:45.913Z,1342
2023-04-12T08:29:45.916Z,1388
2023-04-12T08:30:45.940Z,1388
2023-04-12T08:31:45.981Z,1388
2023-04-12T08:32:45.999Z,1388
2023-04-12T08:33:45.917Z,1388
2023-04-12T08:34:46.182Z,1527
2023-04-12T08:35:45.950Z,1527
2023-04-12T08:36:45.955Z,1527
2023-04-12T08:37:45.927Z,1527
2023-04-12T08:38:46.561Z,1527
2023-04-12T08:39:45.914Z,1539
2023-04-12T08:40:45.923Z,1539
2023-04-12T08:41:45.924Z,1539
2023-04-12T08:42:45.917Z,1539
2023-04-12T08:43:45.937Z,1539
2023-04-12T08:44:45.926Z,1555
2023-04-12T08:45:45.933Z,1555
2023-04-12T08:46:45.974Z,1555
2023-04-12T08:47:45.955Z,1555
2023-04-12T08:48:45.918Z,1555
2023-04-12T08:49:45.925Z,1774
2023-04-12T08:50:45.922Z,1774
2023-04-12T08:51:45.940Z,1774
2023-04-12T08:52:46.027Z,1774
2023-04-12T08:53:45.928Z,1774
2023-04-12T08:54:45.924Z,1972
2023-04-12T08:55:45.926Z,1972
2023-04-12T08:56:45.926Z,1972
2023-04-12T08:57:45.921Z,1972
2023-04-12T08:58:45.955Z,1972
2023-04-12T08:59:45.932Z,2097
2023-04-12T09:00:45.937Z,2097
2023-04-12T09:01:45.981Z,2097
2023-04-12T09:02:45.989Z,2097
2023-04-12T09:03:46.058Z,2097
2023-04-12T09:04:46.005Z,1625
2023-04-12T09:05:45.936Z,1625
2023-04-12T09:06:45.925Z,1625
2023-04-12T09:07:45.926Z,1625
2023-04-12T09:08:45.974Z,1625
2023-04-12T09:09:45.938Z,1628
2023-04-12T09:10:45.941Z,1628
2023-04-12T09:11:45.933Z,1628
2023-04-12T09:12:45.925Z,1628
2023-04-12T09:13:45.933Z,1628
2023-04-12T09:14:45.925Z,1498
2023-04-12T09:15:45.922Z,1498
2023-04-12T09:16:45.993Z,1498
2023-04-12T09:17:45.974Z,1498
2023-04-12T09:18:45.925Z,1498
2023-04-12T09:19:45.927Z,1527
2023-04-12T09:20:45.928Z,1527
2023-04-12T09:21:45.925Z,1527
2023-04-12T09:22:45.944Z,1527
2023-04-12T09:23:45.939Z,1527
2023-04-12T09:24:45.987Z,1624
2023-04-12T09:25:45.928Z,1624
2023-04-12T09:26:45.926Z,1624
2023-04-12T09:27:45.926Z,1624
2023-04-12T09:28:45.940Z,1624
2023-04-12T09:29:45.930Z,1593
2023-04-12T09:30:45.927Z,1593
2023-04-12T09:31:45.949Z,1593
2023-04-12T09:32:45.975Z,1593
2023-04-12T09:33:45.939Z,1593
2023-04-12T09:34:45.932Z,1646
2023-04-12T09:35:45.961Z,1646
2023-04-12T09:36:45.928Z,1609
2023-04-12T09:37:45.928Z,1561
2023-04-12T09:38:45.940Z,1561
2023-04-12T09:39:45.979Z,1561
2023-04-12T09:40:46.009Z,1561
2023-04-12T09:41:45.969Z,1561
2023-04-12T09:42:45.940Z,1194
2023-04-12T09:43:45.945Z,1194
2023-04-12T09:44:45.953Z,1194
2023-04-12T09:45:45.942Z,1194
2023-04-12T09:46:47.702Z,1194
2023-04-12T09:47:45.954Z,958
2023-04-12T09:48:45.941Z,958
2023-04-12T09:49:45.958Z,958
2023-04-12T09:50:45.958Z,958
2023-04-12T09:51:45.934Z,958
2023-04-12T09:52:45.936Z,939
2023-04-12T09:53:45.937Z,939
2023-04-12T09:54:45.962Z,939
2023-04-12T09:55:45.942Z,939
2023-04-12T09:56:45.973Z,939
2023-04-12T09:57:45.951Z,1043
2023-04-12T09:58:45.932Z,1043
2023-04-12T09:59:45.933Z,1043
2023-04-12T10:00:45.941Z,1043
2023-04-12T10:01:45.982Z,1043
2023-04-12T10:02:46.994Z,1343
2023-04-12T10:03:46.098Z,1343
2023-04-12T10:04:46.018Z,1343
2023-04-12T10:05:45.936Z,1343
2023-04-12T10:06:45.955Z,1343
2023-04-12T10:07:45.940Z,1537
2023-04-12T10:08:45.950Z,1537
2023-04-12T10:09:45.942Z,1537
2023-04-12T10:10:45.935Z,1537
2023-04-12T10:11:45.950Z,1537
2023-04-12T10:12:45.962Z,1477
2023-04-12T10:13:45.952Z,1477
2023-04-12T10:14:45.936Z,1477
2023-04-12T10:15:45.970Z,1477
2023-04-12T10:16:45.985Z,1477
2023-04-12T10:17:45.998Z,1591
2023-04-12T10:18:45.949Z,1591
2023-04-12T10:19:45.951Z,1591
2023-04-12T10:20:45.940Z,1591
2023-04-12T10:21:45.947Z,1591
2023-04-12T10:22:45.948Z,1557
2023-04-12T10:23:45.943Z,1557
2023-04-12T10:24:45.938Z,1557
2023-04-12T10:25:45.943Z,1557
2023-04-12T10:26:45.988Z,1557
2023-04-12T10:27:45.995Z,1637
2023-04-12T10:28:45.984Z,1637
2023-04-12T10:29:45.944Z,1637
2023-04-12T10:30:45.937Z,1637
2023-04-12T10:31:45.995Z,1637
2023-04-12T10:32:45.985Z,1665
2023-04-12T10:33:45.945Z,1665
2023-04-12T10:34:45.957Z,1665
2023-04-12T10:35:46.040Z,1665
2023-04-12T10:36:45.992Z,1665
2023-04-12T10:37:45.951Z,1460
2023-04-12T10:38:45.946Z,1460
2023-04-12T10:39:45.966Z,1460
2023-04-12T10:40:45.951Z,1460
2023-04-12T10:41:45.952Z,1460
2023-04-12T10:42:45.982Z,1285
2023-04-12T10:43:45.950Z,1285
2023-04-12T10:44:45.986Z,1285
2023-04-12T10:45:45.977Z,1285
2023-04-12T10:46:46.032Z,1285
2023-04-12T10:47:45.990Z,1398
2023-04-12T10:48:45.948Z,1398
2023-04-12T10:49:45.948Z,1398
2023-04-12T10:50:45.959Z,1398
2023-04-12T10:51:45.948Z,1398
2023-04-12T10:52:45.954Z,1459
2023-04-12T10:53:45.972Z,1459
2023-04-12T10:54:45.967Z,1459
2023-04-12T10:55:45.996Z,1459
2023-04-12T10:56:45.983Z,1459
2023-04-12T10:57:45.958Z,1713
2023-04-12T10:58:45.970Z,1713
2023-04-12T10:59:47.806Z,1713
2023-04-12T11:00:46.045Z,1713
2023-04-12T11:01:46.016Z,1713
2023-04-12T11:02:46.080Z,2276
2023-04-12T11:03:46.085Z,2276
2023-04-12T11:04:45.988Z,2276
2023-04-12T11:05:45.979Z,2276
2023-04-12T11:06:45.950Z,2276
2023-04-12T11:07:45.955Z,3130
2023-04-12T11:08:45.967Z,3130
2023-04-12T11:09:45.970Z,3130
2023-04-12T11:10:45.968Z,3130
2023-04-12T11:11:45.962Z,3130
2023-04-12T11:12:45.948Z,3277
2023-04-12T11:13:45.951Z,3277
2023-04-12T11:14:45.949Z,3277
2023-04-12T11:15:46.002Z,3277
2023-04-12T11:16:46.005Z,3277
2023-04-12T11:17:45.998Z,4024
2023-04-12T11:18:45.954Z,4024
2023-04-12T11:19:45.948Z,4024
2023-04-12T11:20:45.979Z,3896
2023-04-12T11:21:45.976Z,3896
2023-04-12T11:22:45.976Z,3896
2023-04-12T11:23:45.964Z,3896
2023-04-12T11:24:45.959Z,3896
2023-04-12T11:25:45.968Z,2930
2023-04-12T11:26:45.957Z,2930
2023-04-12T11:27:45.955Z,2930
2023-04-12T11:28:45.955Z,3895
2023-04-12T11:29:45.962Z,3934
2023-04-12T11:30:45.952Z,3934
2023-04-12T11:31:46.006Z,3934
2023-04-12T11:32:46.059Z,5568
2023-04-12T11:33:45.965Z,5568
2023-04-12T11:34:45.964Z,5568
2023-04-12T11:35:45.960Z,6044
2023-04-12T11:36:45.958Z,6044
2023-04-12T11:37:45.964Z,6044
2023-04-12T11:38:45.996Z,6044
2023-04-12T11:39:45.991Z,7490
2023-04-12T11:40:45.973Z,6182
2023-04-12T11:41:45.979Z,7256
2023-04-12T11:42:45.959Z,7940
2023-04-12T11:43:45.988Z,7793
2023-04-12T11:44:54.996Z,4223
2023-04-12T11:45:46.012Z,4223
2023-04-12T11:46:45.970Z,6119
2023-04-12T11:47:46.003Z,4353
2023-04-12T11:48:45.986Z,4353
2023-04-12T11:49:45.959Z,4353
2023-04-12T11:50:48.430Z,4353
2023-04-12T11:51:48.320Z,4353
2023-04-12T11:52:45.966Z,5282
2023-04-12T11:53:45.971Z,5200
2023-04-12T11:54:45.966Z,5200
2023-04-12T11:55:45.962Z,4758
2023-04-12T11:56:45.970Z,4758
2023-04-12T11:57:45.971Z,4758
2023-04-12T11:58:45.966Z,4888
2023-04-12T11:59:45.970Z,5190
2023-04-12T12:00:45.967Z,4902
2023-04-12T12:01:46.003Z,4519
2023-04-12T12:02:52.461Z,4602
2023-04-12T12:03:46.259Z,6759
2023-04-12T12:04:46.208Z,5008
2023-04-12T12:05:46.388Z,5008
2023-04-12T12:06:46.709Z,5008
2023-04-12T12:07:45.969Z,5613
2023-04-12T12:08:45.976Z,5613
2023-04-12T12:09:45.973Z,5613
2023-04-12T12:11:00.460Z,4996
2023-04-12T12:11:45.973Z,5188
2023-04-12T12:12:45.978Z,5122
2023-04-12T12:13:45.974Z,4330
2023-04-12T12:14:45.977Z,4964
2023-04-12T12:15:46.028Z,4322
2023-04-12T12:16:45.970Z,4323
2023-04-12T12:17:45.987Z,3966
2023-04-12T12:18:45.978Z,3996
2023-04-12T12:19:45.984Z,3935
2023-04-12T12:20:46.002Z,3943
2023-04-12T12:21:45.975Z,3773
2023-04-12T12:22:45.980Z,3975
2023-04-12T12:23:45.983Z,3755
2023-04-12T12:24:45.983Z,3867
2023-04-12T12:25:45.975Z,3492
2023-04-12T12:26:45.980Z,3492
2023-04-12T12:27:46.007Z,3492
2023-04-12T12:28:45.978Z,3492
2023-04-12T12:29:45.982Z,3492
2023-04-12T12:30:46.000Z,2869
2023-04-12T12:31:46.036Z,2798
2023-04-12T12:32:46.023Z,3529
2023-04-12T12:33:47.252Z,2839
2023-04-12T12:34:46.004Z,2805
2023-04-12T12:35:45.998Z,2803
2023-04-12T12:36:46.021Z,2854
2023-04-12T12:37:45.982Z,3675
2023-04-12T12:38:45.987Z,3675
2023-04-12T12:39:45.989Z,3675
2023-04-12T12:40:45.984Z,3675
2023-04-12T12:41:45.985Z,3675
2023-04-12T12:42:45.983Z,3553
2023-04-12T12:43:45.984Z,3899
2023-04-12T12:44:45.993Z,4010
2023-04-12T12:45:46.002Z,4010
2023-04-12T12:46:53.893Z,3484
2023-04-12T12:47:46.096Z,3485
2023-04-12T12:48:45.991Z,3547
2023-04-12T12:49:45.990Z,4209
2023-04-12T12:50:45.987Z,6613
2023-04-12T12:51:45.991Z,4374
2023-04-12T12:52:46.025Z,4311
2023-04-12T12:53:45.987Z,4272
2023-04-12T12:54:45.992Z,4432
2023-04-12T12:55:45.993Z,4432
2023-04-12T12:56:45.992Z,4432
2023-04-12T12:57:52.200Z,4432
2023-04-12T12:58:46.008Z,4667
2023-04-12T12:59:45.988Z,4667
2023-04-12T13:00:45.992Z,5450
2023-04-12T13:01:46.045Z,5450
2023-04-12T13:02:46.031Z,5450
2023-04-12T13:03:46.116Z,6132
2023-04-12T13:04:46.064Z,5489
2023-04-12T13:05:45.992Z,5664
2023-04-12T13:06:45.992Z,7243
2023-04-12T13:07:45.994Z,5277
2023-04-12T13:08:46.014Z,4876
2023-04-12T13:09:45.995Z,4573
2023-04-12T13:10:45.995Z,6239
2023-04-12T13:11:45.996Z,6730
2023-04-12T13:12:46.000Z,4657
2023-04-12T13:13:45.993Z,4080
2023-04-12T13:14:45.992Z,4136
2023-04-12T13:15:45.994Z,4136
2023-04-12T13:16:46.207Z,4869
2023-04-12T13:17:46.001Z,5837
2023-04-12T13:18:45.992Z,6352
2023-04-12T13:19:45.990Z,5276
2023-04-12T13:20:45.994Z,5156
2023-04-12T13:21:45.993Z,5336
2023-04-12T13:22:45.991Z,5425
2023-04-12T13:23:45.995Z,6476
2023-04-12T13:24:46.017Z,5696
2023-04-12T13:25:45.995Z,5249
2023-04-12T13:26:45.995Z,5148
2023-04-12T13:27:45.999Z,6080
2023-04-12T13:28:45.995Z,6080
2023-04-12T13:29:45.997Z,4438
2023-04-12T13:30:45.997Z,4438
2023-04-12T13:31:46.032Z,3587
2023-04-12T13:32:46.014Z,3599
2023-04-12T13:33:45.998Z,3747
2023-04-12T13:34:45.994Z,3747
2023-04-12T13:35:45.999Z,4890
2023-04-12T13:36:46.001Z,4404
2023-04-12T13:37:46.002Z,4404
2023-04-12T13:38:45.996Z,4404
2023-04-12T13:39:45.995Z,4404
2023-04-12T13:40:46.023Z,4404
2023-04-12T13:41:45.998Z,4503
2023-04-12T13:42:46.000Z,4503
2023-04-12T13:43:45.998Z,4197
2023-04-12T13:44:46.016Z,3805
2023-04-12T13:45:46.030Z,4097
2023-04-12T13:46:46.010Z,4267
2023-04-12T13:47:46.070Z,4034
2023-04-12T13:48:46.001Z,3955
2023-04-12T13:49:46.001Z,3865
2023-04-12T13:50:47.293Z,3470